Relevés horaires Schaffen (Belgique)


Relevés horaires à Schaffen - Samedi 03 Avr. 2021
Heure UTC1 Température [°C] Vent [km/h] Hum. [%] Pres.4 [hPa] Visi. [Km] Nébu. [octa] Préc.5 [mm] Cond.
2m. Res. Ros. Dir.2 Vit. Moy. Raf.3
23:00 3.3 3.3 -0.6 N 3.7 -- 7.4 76 1028.7(0.5/3h) 19 -- -- --
22:00 3.7 2.4 -0.4 N 5.6 -- 11.1 75 1028.5(0.7/3h) 19 -- -- --
21:00 4.5 2.2 -0.2 N 9.3 -- 16.7 71 1028.2(0.9/3h) 18 -- -- --
20:00 6.2 3.9 0.7 N 11.1 -- 16.7 68 1028(1.0/3h) 18 -- -- --
19:00 6.8 5.4 0.7 N 7.4 -- 13.0 65 1027.7(0.4/3h) 20 -- -- --
18:00 8.7 7.6 0.6 N 7.4 -- 16.7 57 1027.2(-0.2/3h) 20 -- -- --
17:00 10.1 9.3 1.1 N 7.4 -- 13.0 54 1027(-0.9/3h) 20 -- -- --
16:00 10.9 10.2 1.3 N 7.4 -- 16.7 51 1027.2(-1.1/3h) 20 -- -- --
15:00 10.6 9.5 0.1 N 9.3 -- 14.8 48 1027.5(-1.2/3h) 20 -- -- --
14:00 11.0 10.7 -0.3 N 5.6 -- 13.0 46 1027.9(-1.0/3h) 20 -- -- --
13:00 10.2 9.4 0.3 NNE 7.4 -- 13.0 50 1028.4(-0.6/3h) 20 -- -- --
12:00 10.0 9.1 1.0 N 7.4 -- 16.7 53 1028.7(-0.1/3h) 20 -- -- --
11:00 8.2 7 0.8 NE 7.4 -- 14.8 60 1029(0.6/3h) 19 -- -- --
10:00 7.9 6.3 1.6 NE 9.3 -- 16.7 64 1029(0.8/3h) 20 -- -- --
09:00 6.5 4.2 1.2 N 11.1 -- 16.7 69 1029(1.3/3h) 15 -- -- --
08:00 6.1 4.1 1.5 N 9.3 -- 14.8 72 1028.5(1.2/3h) 17 -- -- --
07:00 5.4 3.8 1.3 N 7.4 -- 9.3 75 1028.2(1.2/3h) 18 -- -- --
06:00 4.8 3.6 0.9 N 5.6 -- 16.7 76 1027.7(0.7/3h) 19 -- 0.1/12h
NA
05:00 4.4 3.2 0.9 N 5.6 -- 11.1 78 1027.2(0.5/3h) 19 -- -- NA
04:00 4.3 2.5 1.1 N 7.4 -- 13.0 80 1026.9(0.1/3h) 18 -- -- NA
03:00 5.0 2.8 0.9 N 9.3 -- 16.7 75 1026.9(-0.3/3h) 20 -- -- --
02:00 5.0 3.3 1.9 NNO 7.4 -- 13.0 80 1026.7(-0.7/3h) 19 -- -- --
01:00 5.0 3.3 2.4 NNO 7.4 -- 13.0 83 1026.7(-0.4/3h) 18 -- -- --
00:00 4.1 2.8 2.1 NNO 5.6 -- 18.5 87 1027.2(0.0/3h) 16 -- -- --

1 Coordinated Universal Time. Actuellement il est 20:00 locale et 18:00 UTC.

2 Le vent souffle depuis la direction indiquée vers la direction oposée.

3 Les rafales max. sont disponible 40 min après l'heure du relevé.

4 Pour les stations d'altitude (plus de 600m) le géopotentiel du niveau le plus proche de la pression obligatoire est indiqué.

5 Les stations disposant d'un diffuseur peuvent indiquer "trace". Cela signifie que des précipitations ont touchés le sol mais que la quantité est inférieure à 0.1 mm.

Récapitulatif de la journée
Température [°C] Vent [km/h] Ensoleillement4 [h] Precipitations totale5 [mm] Pression [Hpa]
Min1 Max.2 Moy.3 Max. Min Max.
3.9 12.0 0 18.5 0 h 0 min 0 1026.7 1029.0

1 Température minimale relevée entre 18:00 UTC la veille et 18:00 UTC le jour donné.

2 Température maximale relevée entre 06:00 UTC le jour donné et 06:00 UTC le lendemain.

3 Vent moyen de la journée basé sur les relevés horaires.

4 Ensoleillement en heures relevé entre 06:00 UTC la veille et 06:00 UTC le jour donné.

5 Précipitations totales tombées entre 06:00 UTC la jour donné et 06:00 UTC le lendemain.

Graphiques horaires